createdAt,value
2023-01-29T00:02:20.741Z,18.92
2023-01-29T00:04:48.564Z,22.17
2023-01-29T00:07:16.457Z,18.48
2023-01-29T00:09:44.406Z,21.02
2023-01-29T00:12:13.603Z,20.70
2023-01-29T00:14:41.524Z,20.52
2023-01-29T00:17:12.316Z,25.58
2023-01-29T00:19:40.328Z,19.50
2023-01-29T00:22:08.079Z,18.33
2023-01-29T00:24:35.994Z,20.48
2023-01-29T00:27:03.968Z,20.98
2023-01-29T00:29:33.192Z,21.00
2023-01-29T00:32:01.101Z,18.33
2023-01-29T00:34:29.050Z,22.02
2023-01-29T00:37:04.804Z,27.10
2023-01-29T00:39:47.439Z,21.25
2023-01-29T00:42:33.592Z,24.02
2023-01-29T00:45:02.857Z,26.33
2023-01-29T00:47:34.420Z,29.05
2023-01-29T00:50:03.156Z,23.00
2023-01-29T00:52:31.321Z,23.48
2023-01-29T00:55:06.063Z,25.88
2023-01-29T00:57:35.513Z,21.73
2023-01-29T01:00:12.105Z,25.48
2023-01-29T01:02:57.489Z,26.40
2023-01-29T01:05:27.575Z,25.75
2023-01-29T01:07:58.282Z,30.25
2023-01-29T01:10:28.834Z,27.50
2023-01-29T01:12:58.975Z,29.13
2023-01-29T01:15:30.569Z,30.85
2023-01-29T01:18:00.329Z,25.30
2023-01-29T01:20:30.667Z,26.35
2023-01-29T01:22:58.863Z,25.02
2023-01-29T01:25:30.245Z,26.27
2023-01-29T01:28:02.711Z,26.87
2023-01-29T01:30:33.097Z,26.20
2023-01-29T01:33:01.641Z,28.65
2023-01-29T01:35:29.511Z,31.20
2023-01-29T01:37:57.325Z,27.38
2023-01-29T01:40:26.667Z,32.25
2023-01-29T01:42:56.157Z,29.55
2023-01-29T01:45:33.024Z,28.55
2023-01-29T01:48:04.333Z,35.00
2023-01-29T01:50:36.232Z,29.77
2023-01-29T01:53:08.567Z,27.98
2023-01-29T01:55:40.828Z,30.63
2023-01-29T01:58:13.758Z,31.15
2023-01-29T02:00:43.636Z,31.33
2023-01-29T02:03:30.822Z,29.42
2023-01-29T02:06:19.802Z,35.70
2023-01-29T02:09:13.210Z,33.38
2023-01-29T02:11:41.882Z,30.20
2023-01-29T02:14:09.976Z,32.15
2023-01-29T02:16:39.506Z,36.38
2023-01-29T02:22:30.028Z,32.42
2023-01-29T02:25:10.354Z,32.22
2023-01-29T02:28:03.651Z,31.98
2023-01-29T02:30:37.130Z,31.20
2023-01-29T02:33:14.353Z,32.95
2023-01-29T02:35:46.324Z,36.85
2023-01-29T02:38:22.819Z,33.83
2023-01-29T02:40:55.887Z,33.38
2023-01-29T02:43:35.356Z,38.28
2023-01-29T02:46:12.501Z,29.27
2023-01-29T02:48:45.924Z,42.78
2023-01-29T02:51:21.062Z,43.42
2023-01-29T02:53:54.692Z,51.45
2023-01-29T02:56:28.549Z,66.00
2023-01-29T02:59:01.544Z,63.22
2023-01-29T03:01:35.199Z,53.25
2023-01-29T03:04:08.526Z,44.13
2023-01-29T03:06:40.305Z,42.67
2023-01-29T03:09:14.648Z,38.33
2023-01-29T03:11:47.281Z,35.20
2023-01-29T03:14:19.569Z,34.75
2023-01-29T03:16:51.953Z,32.63
2023-01-29T03:19:28.454Z,39.50
2023-01-29T03:22:00.163Z,34.85
2023-01-29T03:24:57.296Z,29.63
2023-01-29T03:27:49.846Z,33.92
2023-01-29T03:30:38.269Z,35.75
2023-01-29T03:33:35.170Z,36.00
2023-01-29T03:36:07.715Z,33.40
2023-01-29T03:38:36.223Z,36.55
2023-01-29T03:41:09.919Z,36.47
2023-01-29T03:43:44.674Z,32.17
2023-01-29T03:46:19.125Z,35.90
2023-01-29T03:48:56.573Z,35.80
2023-01-29T03:51:37.501Z,35.78
2023-01-29T03:54:10.844Z,39.90
2023-01-29T03:56:51.404Z,34.67
2023-01-29T03:59:32.009Z,37.95
2023-01-29T04:02:39.779Z,30.63
2023-01-29T04:05:17.389Z,36.78
2023-01-29T04:08:06.077Z,32.90
2023-01-29T04:10:36.925Z,33.90
2023-01-29T04:13:10.145Z,36.10
2023-01-29T04:15:45.065Z,35.70
2023-01-29T04:18:14.882Z,36.58
2023-01-29T04:21:02.539Z,33.20
2023-01-29T04:23:30.817Z,32.67
2023-01-29T04:26:16.840Z,36.50
2023-01-29T04:28:55.705Z,34.88
2023-01-29T04:31:28.868Z,36.80
2023-01-29T04:34:12.248Z,33.25
2023-01-29T04:36:47.880Z,33.50
2023-01-29T04:39:20.123Z,35.25
2023-01-29T04:41:54.416Z,33.60
2023-01-29T04:44:30.247Z,33.47
2023-01-29T04:47:07.316Z,38.13
2023-01-29T04:49:45.625Z,37.05
2023-01-29T04:52:20.825Z,36.25
2023-01-29T04:54:56.778Z,33.58
2023-01-29T04:57:31.340Z,36.92
2023-01-29T05:00:05.568Z,45.72
2023-01-29T05:02:35.587Z,36.90
2023-01-29T05:05:06.986Z,40.72
2023-01-29T05:07:37.310Z,38.38
2023-01-29T05:10:06.745Z,38.97
2023-01-29T05:12:36.834Z,41.75
2023-01-29T05:15:10.234Z,40.05
2023-01-29T05:17:38.090Z,38.63
2023-01-29T05:20:08.580Z,38.88
2023-01-29T05:22:40.464Z,40.83
2023-01-29T05:25:22.195Z,41.08
2023-01-29T05:28:06.384Z,41.90
2023-01-29T05:30:36.231Z,39.35
2023-01-29T05:33:04.719Z,38.53
2023-01-29T05:35:34.825Z,39.50
2023-01-29T05:38:02.767Z,39.28
2023-01-29T05:40:30.775Z,36.53
2023-01-29T05:42:58.650Z,40.03
2023-01-29T05:45:26.514Z,38.60
2023-01-29T05:47:57.800Z,36.15
2023-01-29T05:50:26.504Z,42.15
2023-01-29T05:52:59.259Z,37.55
2023-01-29T05:55:29.344Z,37.40
2023-01-29T05:57:57.168Z,37.53
2023-01-29T06:00:25.344Z,36.30
2023-01-29T06:02:53.264Z,34.63
2023-01-29T06:05:21.103Z,34.85
2023-01-29T06:07:48.955Z,33.25
2023-01-29T06:10:19.635Z,35.30
2023-01-29T06:12:47.759Z,37.65
2023-01-29T06:15:16.403Z,37.70
2023-01-29T06:17:44.536Z,35.08
2023-01-29T06:20:13.206Z,32.28
2023-01-29T06:22:41.039Z,32.58
2023-01-29T06:25:10.025Z,35.45
2023-01-29T06:27:39.255Z,38.05
2023-01-29T06:33:01.653Z,35.22
2023-01-29T06:35:29.756Z,37.33
2023-01-29T06:37:57.614Z,36.53
2023-01-29T06:40:25.456Z,35.25
2023-01-29T06:42:54.605Z,35.15
2023-01-29T06:45:24.019Z,35.83
2023-01-29T06:47:52.032Z,31.48
2023-01-29T06:50:19.847Z,32.33
2023-01-29T06:52:47.879Z,33.05
2023-01-29T06:55:15.703Z,34.78
2023-01-29T06:57:43.531Z,33.55
2023-01-29T07:00:14.786Z,29.85
2023-01-29T07:02:42.900Z,31.75
2023-01-29T07:05:10.789Z,38.28
2023-01-29T07:07:38.579Z,39.90
2023-01-29T07:10:07.534Z,37.55
2023-01-29T07:12:35.313Z,34.55
2023-01-29T07:15:03.143Z,36.42
2023-01-29T07:17:32.627Z,35.88
2023-01-29T07:20:00.405Z,30.65
2023-01-29T07:22:28.211Z,32.30
2023-01-29T07:24:56.040Z,37.58
2023-01-29T07:27:23.826Z,37.15
2023-01-29T07:29:51.649Z,29.50
2023-01-29T07:32:19.559Z,30.35
2023-01-29T07:34:48.859Z,30.05
2023-01-29T07:37:16.674Z,28.55
2023-01-29T07:39:44.514Z,31.20
2023-01-29T07:42:12.330Z,27.80
2023-01-29T07:44:40.165Z,28.92
2023-01-29T07:47:07.996Z,30.17
2023-01-29T07:49:35.863Z,27.83
2023-01-29T07:52:05.432Z,26.38
2023-01-29T07:54:33.220Z,27.80
2023-01-29T07:57:01.079Z,27.20
2023-01-29T07:59:28.842Z,27.00
2023-01-29T08:01:56.833Z,28.10
2023-01-29T08:04:24.802Z,26.35
2023-01-29T08:06:52.675Z,24.17
2023-01-29T08:09:21.908Z,27.17
2023-01-29T08:11:49.689Z,26.50
2023-01-29T08:14:17.553Z,27.85
2023-01-29T08:16:45.428Z,26.90
2023-01-29T08:19:13.254Z,27.17
2023-01-29T08:21:41.075Z,27.02
2023-01-29T08:24:09.021Z,23.13
2023-01-29T08:26:38.190Z,26.75
2023-01-29T08:29:06.042Z,26.27
2023-01-29T08:31:34.055Z,23.60
2023-01-29T08:34:01.832Z,24.73
2023-01-29T08:36:29.875Z,23.63
2023-01-29T08:38:57.621Z,25.77
2023-01-29T08:41:25.440Z,21.83
2023-01-29T08:43:54.652Z,24.27
2023-01-29T08:46:22.531Z,23.13
2023-01-29T08:48:50.395Z,28.55
2023-01-29T08:51:18.552Z,40.63
2023-01-29T08:53:46.394Z,29.25
2023-01-29T08:56:16.224Z,25.67
2023-01-29T08:58:44.260Z,24.40
2023-01-29T09:01:15.414Z,23.23
2023-01-29T09:03:44.434Z,22.02
2023-01-29T09:06:14.148Z,23.80
2023-01-29T09:08:42.223Z,24.17
2023-01-29T09:11:10.680Z,30.98
2023-01-29T09:13:43.741Z,30.10
2023-01-29T09:16:13.297Z,28.23
2023-01-29T09:18:41.223Z,24.90
2023-01-29T09:21:09.415Z,24.77
2023-01-29T09:23:37.432Z,20.45
2023-01-29T09:26:05.647Z,28.10
2023-01-29T09:28:33.776Z,28.73
2023-01-29T09:31:03.531Z,24.13
2023-01-29T09:33:33.437Z,26.55
2023-01-29T09:36:03.670Z,23.70
2023-01-29T09:38:31.581Z,21.45
2023-01-29T09:41:07.327Z,19.77
2023-01-29T09:43:45.066Z,19.67
2023-01-29T09:46:21.118Z,22.17
2023-01-29T09:48:58.013Z,24.02
2023-01-29T09:51:31.551Z,21.20
2023-01-29T09:54:10.168Z,18.58
2023-01-29T09:56:40.537Z,25.15
2023-01-29T09:59:13.890Z,21.38
2023-01-29T10:01:52.904Z,21.00
2023-01-29T10:04:41.417Z,23.63
2023-01-29T10:07:27.816Z,24.73
2023-01-29T10:10:16.047Z,20.90
2023-01-29T10:13:00.243Z,20.08
2023-01-29T10:15:47.045Z,19.85
2023-01-29T10:18:46.970Z,19.33
2023-01-29T10:21:28.983Z,20.00
2023-01-29T10:24:07.069Z,21.03
2023-01-29T10:26:37.777Z,23.92
2023-01-29T10:29:08.924Z,18.77
2023-01-29T10:31:40.572Z,27.95
2023-01-29T10:34:13.920Z,18.43
2023-01-29T10:36:45.807Z,18.98
2023-01-29T10:39:20.530Z,20.17
2023-01-29T10:42:03.467Z,18.60
2023-01-29T10:44:43.122Z,17.77
2023-01-29T10:47:43.581Z,15.18
2023-01-29T10:50:34.724Z,19.95
2023-01-29T10:53:39.596Z,17.02
2023-01-29T10:56:23.014Z,18.17
2023-01-29T10:58:59.698Z,15.98
2023-01-29T11:01:27.707Z,19.80
2023-01-29T11:03:59.206Z,13.68
2023-01-29T11:06:31.430Z,18.30
2023-01-29T11:09:10.101Z,20.92
2023-01-29T11:11:42.946Z,13.90
2023-01-29T11:14:15.110Z,19.52
2023-01-29T11:16:45.639Z,16.58
2023-01-29T11:19:13.654Z,16.05
2023-01-29T11:21:53.711Z,14.80
2023-01-29T11:24:22.930Z,19.08
2023-01-29T11:26:53.025Z,18.75
2023-01-29T11:29:38.526Z,15.90
2023-01-29T11:32:08.360Z,21.42
2023-01-29T11:34:36.602Z,14.05
2023-01-29T11:37:07.010Z,19.05
2023-01-29T11:39:44.876Z,17.15
2023-01-29T11:42:21.177Z,16.00
2023-01-29T11:44:49.650Z,14.57
2023-01-29T11:47:21.089Z,13.52
2023-01-29T11:49:51.403Z,17.08
2023-01-29T11:52:22.233Z,16.65
2023-01-29T11:54:55.822Z,18.48
2023-01-29T11:57:28.607Z,15.20
2023-01-29T11:59:59.955Z,15.73
2023-01-29T12:02:34.245Z,19.70
2023-01-29T12:05:07.314Z,20.40
2023-01-29T12:07:35.993Z,18.83
2023-01-29T12:10:05.804Z,20.80
2023-01-29T12:12:43.599Z,18.05
2023-01-29T12:15:20.804Z,14.65
2023-01-29T12:17:54.855Z,15.80
2023-01-29T12:20:28.705Z,18.23
2023-01-29T12:23:04.136Z,16.42
2023-01-29T12:25:44.196Z,16.50
2023-01-29T12:28:23.737Z,18.35
2023-01-29T12:31:09.657Z,22.35
2023-01-29T12:33:45.184Z,18.73
2023-01-29T12:36:18.655Z,16.05
2023-01-29T12:38:47.080Z,16.60
2023-01-29T12:41:29.949Z,12.68
2023-01-29T12:44:06.038Z,14.98
2023-01-29T12:46:40.037Z,15.57
2023-01-29T12:49:16.523Z,17.83
2023-01-29T12:51:54.290Z,16.63
2023-01-29T12:54:27.559Z,17.98
2023-01-29T12:57:01.570Z,17.48
2023-01-29T12:59:34.256Z,16.05
2023-01-29T13:02:15.918Z,15.60
2023-01-29T13:04:48.233Z,20.27
2023-01-29T13:07:20.257Z,18.52
2023-01-29T13:09:54.401Z,18.52
2023-01-29T13:12:25.398Z,19.83
2023-01-29T13:14:57.448Z,16.25
2023-01-29T13:17:31.481Z,20.83
2023-01-29T13:20:03.075Z,22.48
2023-01-29T13:22:36.361Z,18.95
2023-01-29T13:25:06.010Z,17.65
2023-01-29T13:27:36.549Z,14.65
2023-01-29T13:30:05.782Z,16.95
2023-01-29T13:32:36.900Z,17.80
2023-01-29T13:35:07.763Z,18.95
2023-01-29T13:37:38.904Z,22.52
2023-01-29T13:40:08.585Z,17.95
2023-01-29T13:42:43.839Z,17.95
2023-01-29T13:45:22.331Z,15.90
2023-01-29T13:47:52.072Z,15.80
2023-01-29T13:50:25.168Z,21.05
2023-01-29T13:52:58.268Z,15.75
2023-01-29T13:55:31.312Z,19.98
2023-01-29T13:58:01.789Z,16.67
2023-01-29T14:00:57.374Z,16.40
2023-01-29T14:04:03.712Z,17.42
2023-01-29T14:06:53.917Z,21.02
2023-01-29T14:10:14.024Z,22.25
2023-01-29T14:12:50.009Z,18.05
2023-01-29T14:15:31.450Z,16.33
2023-01-29T14:18:19.510Z,13.65
2023-01-29T14:20:57.396Z,17.17
2023-01-29T14:23:36.967Z,18.33
2023-01-29T14:26:07.399Z,16.50
2023-01-29T14:28:36.513Z,16.70
2023-01-29T14:31:07.739Z,20.40
2023-01-29T14:33:38.283Z,19.23
2023-01-29T14:36:10.578Z,17.05
2023-01-29T14:38:41.150Z,19.50
2023-01-29T14:41:20.141Z,26.70
2023-01-29T14:43:47.995Z,28.13
2023-01-29T14:46:46.084Z,23.75
2023-01-29T14:49:13.932Z,19.60
2023-01-29T14:51:48.633Z,23.38
2023-01-29T14:54:24.172Z,19.10
2023-01-29T14:56:59.819Z,17.73
2023-01-29T14:59:34.859Z,21.17
2023-01-29T15:02:15.723Z,20.52
2023-01-29T15:04:49.193Z,21.45
2023-01-29T15:07:30.916Z,20.90
2023-01-29T15:10:21.482Z,16.98
2023-01-29T15:12:56.022Z,18.70
2023-01-29T15:15:36.393Z,15.55
2023-01-29T15:18:10.360Z,16.63
2023-01-29T15:20:40.214Z,18.50
2023-01-29T15:23:25.585Z,18.05
2023-01-29T15:25:56.165Z,21.10
2023-01-29T15:28:24.380Z,17.88
2023-01-29T15:30:56.399Z,17.00
2023-01-29T15:33:26.277Z,18.23
2023-01-29T15:36:06.695Z,17.92
2023-01-29T15:38:35.441Z,16.55
2023-01-29T15:41:15.763Z,15.95
2023-01-29T15:43:45.877Z,15.45
2023-01-29T15:46:27.321Z,16.48
2023-01-29T15:49:00.514Z,18.13
2023-01-29T15:51:29.926Z,14.68
2023-01-29T15:54:01.413Z,14.45
2023-01-29T15:56:34.324Z,15.25
2023-01-29T15:59:09.343Z,12.60
2023-01-29T16:01:37.739Z,15.35
2023-01-29T16:04:12.389Z,14.25
2023-01-29T16:06:42.723Z,20.05
2023-01-29T16:09:16.972Z,17.92
2023-01-29T16:11:45.759Z,17.70
2023-01-29T16:14:15.494Z,14.15
2023-01-29T16:16:45.181Z,19.08
2023-01-29T16:19:23.880Z,14.85
2023-01-29T16:22:00.168Z,18.30
2023-01-29T16:24:30.149Z,17.05
2023-01-29T16:27:00.620Z,16.60
2023-01-29T16:29:32.866Z,19.02
2023-01-29T16:32:03.098Z,16.10
2023-01-29T16:34:37.285Z,18.60
2023-01-29T16:37:07.908Z,16.52
2023-01-29T16:39:39.791Z,15.50
2023-01-29T16:42:32.268Z,15.68
2023-01-29T16:45:02.607Z,17.20
2023-01-29T16:47:36.400Z,18.92
2023-01-29T16:50:27.143Z,17.67
2023-01-29T16:53:01.750Z,20.50
2023-01-29T16:55:37.631Z,19.00
2023-01-29T16:58:14.160Z,18.20
2023-01-29T17:00:46.838Z,18.73
2023-01-29T17:03:16.830Z,19.13
2023-01-29T17:05:47.827Z,21.30
2023-01-29T17:08:21.606Z,24.25
2023-01-29T17:10:50.102Z,23.35
2023-01-29T17:13:24.752Z,20.52
2023-01-29T17:15:53.250Z,20.80
2023-01-29T17:18:22.763Z,24.73
2023-01-29T17:20:52.994Z,27.50
2023-01-29T17:23:21.461Z,29.45
2023-01-29T17:25:49.864Z,27.30
2023-01-29T17:28:44.023Z,23.77
2023-01-29T17:31:12.171Z,25.63
2023-01-29T17:33:44.425Z,24.23
2023-01-29T17:36:15.710Z,26.80
2023-01-29T17:38:43.546Z,27.40
2023-01-29T17:41:19.835Z,25.63
2023-01-29T17:43:48.104Z,27.90
2023-01-29T17:46:17.710Z,29.70
2023-01-29T17:48:46.289Z,26.30
2023-01-29T17:51:17.783Z,28.60
2023-01-29T17:53:47.156Z,27.00
2023-01-29T17:56:17.960Z,31.15
2023-01-29T17:58:45.987Z,29.20
2023-01-29T18:01:13.853Z,34.35
2023-01-29T18:03:41.756Z,26.00
2023-01-29T18:06:10.530Z,36.63
2023-01-29T18:08:40.776Z,28.60
2023-01-29T18:11:13.305Z,35.58
2023-01-29T18:13:41.936Z,30.48
2023-01-29T18:16:09.958Z,31.42
2023-01-29T18:18:37.841Z,36.33
2023-01-29T18:21:05.990Z,31.88
2023-01-29T18:23:33.898Z,34.95
2023-01-29T18:26:03.187Z,33.13
2023-01-29T18:28:31.415Z,37.90
2023-01-29T18:30:59.328Z,30.88
2023-01-29T18:33:27.696Z,33.88
2023-01-29T18:35:56.020Z,30.90
2023-01-29T18:38:24.299Z,33.13
2023-01-29T18:40:52.134Z,35.13
2023-01-29T18:43:21.365Z,38.17
2023-01-29T18:45:49.498Z,37.97
2023-01-29T18:48:17.341Z,34.17
2023-01-29T18:50:45.191Z,39.03
2023-01-29T18:53:12.970Z,34.72
2023-01-29T18:55:41.089Z,34.22
2023-01-29T18:58:33.981Z,37.78
2023-01-29T19:00:59.483Z,37.15
2023-01-29T19:03:27.410Z,35.90
2023-01-29T19:05:55.340Z,35.72
2023-01-29T19:08:23.151Z,35.95
2023-01-29T19:10:50.966Z,38.22
2023-01-29T19:13:18.807Z,31.95
2023-01-29T19:15:48.134Z,35.33
2023-01-29T19:18:17.405Z,36.53
2023-01-29T19:20:45.252Z,36.65
2023-01-29T19:23:13.250Z,34.70
2023-01-29T19:25:41.313Z,34.13
2023-01-29T19:28:09.321Z,31.40
2023-01-29T19:30:39.025Z,32.65
2023-01-29T19:33:06.887Z,36.65
2023-01-29T19:35:36.251Z,33.58
2023-01-29T19:38:06.184Z,32.38
2023-01-29T19:40:34.092Z,32.38
2023-01-29T19:43:01.884Z,27.75
2023-01-29T19:45:49.900Z,28.17
2023-01-29T19:48:20.338Z,28.15
2023-01-29T19:50:54.328Z,33.30
2023-01-29T19:53:22.802Z,29.02
2023-01-29T19:58:57.432Z,31.77
2023-01-29T20:01:26.041Z,29.88
2023-01-29T20:03:53.897Z,30.65
2023-01-29T20:06:25.323Z,33.33
2023-01-29T20:08:53.477Z,29.25
2023-01-29T20:11:23.655Z,28.42
2023-01-29T20:13:52.986Z,32.17
2023-01-29T20:16:21.169Z,28.27
2023-01-29T20:18:49.065Z,26.73
2023-01-29T20:21:20.427Z,27.05
2023-01-29T20:23:52.237Z,27.80
2023-01-29T20:26:21.415Z,28.80
2023-01-29T20:28:49.905Z,32.75
2023-01-29T20:31:18.125Z,26.98
2023-01-29T20:33:46.003Z,28.75
2023-01-29T20:36:14.920Z,26.58
2023-01-29T20:38:42.851Z,30.05
2023-01-29T20:41:15.155Z,28.30
2023-01-29T20:43:43.843Z,26.27
2023-01-29T20:46:12.614Z,28.75
2023-01-29T20:48:42.095Z,26.08
2023-01-29T20:51:13.610Z,25.13
2023-01-29T20:53:43.340Z,30.75
2023-01-29T20:56:13.650Z,27.15
2023-01-29T20:58:41.932Z,27.48
2023-01-29T21:01:10.541Z,27.15
2023-01-29T21:03:39.651Z,26.75
2023-01-29T21:06:08.512Z,25.95
2023-01-29T21:08:36.923Z,24.65
2023-01-29T21:11:05.109Z,28.00
2023-01-29T21:13:34.837Z,26.45
2023-01-29T21:16:03.142Z,27.92
2023-01-29T21:18:32.210Z,29.73
2023-01-29T21:21:00.140Z,26.08
2023-01-29T21:23:27.980Z,27.67
2023-01-29T21:26:02.149Z,22.65
2023-01-29T21:28:30.153Z,20.33
2023-01-29T21:31:05.867Z,23.67
2023-01-29T21:33:34.353Z,27.75
2023-01-29T21:36:02.677Z,28.58
2023-01-29T21:38:31.222Z,25.48
2023-01-29T21:41:03.501Z,21.83
2023-01-29T21:43:30.453Z,23.77
2023-01-29T21:46:00.256Z,28.25
2023-01-29T21:48:29.472Z,27.42
2023-01-29T21:50:57.437Z,31.58
2023-01-29T21:53:25.376Z,27.35
2023-01-29T21:55:53.306Z,22.17
2023-01-29T21:58:21.094Z,23.15
2023-01-29T22:00:49.643Z,26.13
2023-01-29T22:03:17.802Z,28.30
2023-01-29T22:05:46.983Z,24.75
2023-01-29T22:08:14.915Z,24.33
2023-01-29T22:10:42.890Z,26.75
2023-01-29T22:13:10.759Z,26.90
2023-01-29T22:15:38.685Z,24.83
2023-01-29T22:18:06.693Z,23.17
2023-01-29T22:20:34.495Z,25.75
2023-01-29T22:23:03.775Z,26.45
2023-01-29T22:25:33.483Z,27.15
2023-01-29T22:28:01.566Z,26.33
2023-01-29T22:30:29.329Z,24.60
2023-01-29T22:32:57.187Z,27.67
2023-01-29T22:35:24.966Z,25.45
2023-01-29T22:37:52.927Z,26.65
2023-01-29T22:40:22.047Z,23.35
2023-01-29T22:42:49.883Z,24.52
2023-01-29T22:45:18.013Z,26.58
2023-01-29T22:47:45.860Z,25.67
2023-01-29T22:50:14.252Z,25.30
2023-01-29T22:52:43.216Z,26.73
2023-01-29T22:55:12.397Z,26.58
2023-01-29T22:57:41.670Z,29.45
2023-01-29T23:00:12.140Z,24.05
2023-01-29T23:06:36.882Z,27.88
2023-01-29T23:09:04.831Z,25.45
2023-01-29T23:11:32.724Z,25.23
2023-01-29T23:14:00.512Z,24.48
2023-01-29T23:16:29.367Z,33.60
2023-01-29T23:18:57.949Z,28.08
2023-01-29T23:21:27.770Z,26.48
2023-01-29T23:23:58.331Z,28.02
2023-01-29T23:26:44.616Z,26.52
2023-01-29T23:29:12.843Z,32.10
2023-01-29T23:31:40.925Z,30.38
2023-01-29T23:34:08.929Z,27.27
2023-01-29T23:36:36.671Z,29.42
2023-01-29T23:39:06.344Z,26.10
2023-01-29T23:41:34.336Z,30.52
2023-01-29T23:44:02.124Z,28.58
2023-01-29T23:46:30.087Z,31.80
2023-01-29T23:48:57.971Z,26.73
2023-01-29T23:51:25.930Z,29.42
2023-01-29T23:53:54.031Z,27.13
2023-01-29T23:56:23.279Z,31.42
2023-01-29T23:58:54.156Z,27.58
